Time;durP1;ratioP1;P1;durP2;ratioP2;P2;SDS_P1;SDS_P2;PMS_P1;PMS_P2;Temp;Humidity;BMP_temperature;BMP_pressure;BME280_temperature;BME280_humidity;BME280_pressure;Samples;Min_cycle;Max_cycle;Signal;HPM_P1;HPM_P2
2023/04/09 00:01:04;;;;;;;;;37.33;32.33;;;;;10.72;58.41;101868.84;5038629;28;45320;-72
2023/04/09 00:03:30;;;;;;;;;33.67;30.00;;;;;9.65;58.26;101689.13;5035586;28;48055;-72
2023/04/09 00:05:55;;;;;;;;;34.67;32.00;;;;;10.82;58.33;101888.47;5037158;28;45417;-72
2023/04/09 00:08:22;;;;;;;;;36.33;31.33;;;;;10.89;58.47;101895.84;5036139;28;45592;-71
2023/04/09 00:10:48;;;;;;;;;45.00;35.67;;;;;10.81;58.73;101889.41;5036966;28;45325;-70
2023/04/09 00:13:13;;;;;;;;;40.67;34.00;;;;;10.57;58.45;101853.09;5039360;28;45761;-72
2023/04/09 00:15:39;;;;;;;;;33.00;31.00;;;;;10.80;58.76;101893.03;5039999;28;45419;-72
2023/04/09 00:18:04;;;;;;;;;34.67;31.33;;;;;10.61;58.96;101851.91;5044530;28;45456;-71
2023/04/09 00:20:30;;;;;;;;;41.00;33.00;;;;;10.31;59.29;101811.69;5042084;28;45585;-72
2023/04/09 00:22:55;;;;;;;;;38.67;33.00;;;;;10.82;58.95;101885.81;5059568;28;45598;-71
2023/04/09 00:25:20;;;;;;;;;37.00;33.67;;;;;10.85;58.62;101890.91;5040508;28;45881;-71
2023/04/09 00:27:46;;;;;;;;;38.67;34.00;;;;;10.87;58.90;101883.63;5059755;28;45434;-71
2023/04/09 00:30:11;;;;;;;;;33.33;32.33;;;;;10.83;58.54;101877.72;5060047;28;45577;-73
2023/04/09 00:32:37;;;;;;;;;36.33;32.67;;;;;10.88;58.55;101877.34;5041602;28;45668;-72
2023/04/09 00:35:02;;;;;;;;;29.00;26.00;;;;;10.82;58.70;101878.69;5027761;28;45428;-72
2023/04/09 00:37:27;;;;;;;;;36.00;31.00;;;;;10.72;58.52;101875.00;5039293;28;45484;-71
2023/04/09 00:39:52;;;;;;;;;36.67;32.33;;;;;10.62;58.94;101850.94;5039591;28;45332;-71
2023/04/09 00:42:18;;;;;;;;;41.33;33.67;;;;;9.85;59.05;101730.13;5021152;28;62212;-71
2023/04/09 00:44:43;;;;;;;;;36.50;32.50;;;;;10.79;58.98;101872.72;5021421;28;45614;-72
2023/04/09 00:47:09;;;;;;;;;37.00;33.33;;;;;10.75;59.13;101864.13;5039622;28;45354;-71
2023/04/09 00:49:34;;;;;;;;;38.67;32.67;;;;;10.64;58.65;101862.31;5039751;28;45607;-72
2023/04/09 00:52:00;;;;;;;;;37.33;33.33;;;;;10.65;58.93;101837.41;5038945;28;46369;-73
2023/04/09 00:54:26;;;;;;;;;33.00;30.00;;;;;10.84;58.90;101882.06;5039412;28;45269;-73
2023/04/09 00:56:52;;;;;;;;;35.00;31.00;;;;;10.80;59.12;101872.59;5037939;28;45558;-72
2023/04/09 00:59:18;;;;;;;;;37.67;33.00;;;;;10.85;58.76;101864.28;5039800;28;45595;-72
2023/04/09 01:01:43;;;;;;;;;39.67;34.67;;;;;10.28;58.67;101780.88;5034518;28;46945;-72
2023/04/09 01:04:09;;;;;;;;;40.33;32.33;;;;;10.90;58.63;101868.28;5059382;28;45306;-72
2023/04/09 01:06:34;;;;;;;;;41.33;34.00;;;;;10.98;58.05;101870.34;5059071;28;45242;-72
2023/04/09 01:09:22;;;;;;;;;39.67;32.00;;;;;10.92;58.26;101877.00;5059745;28;45502;-71
2023/04/09 01:12:18;;;;;;;;;43.00;34.00;;;;;10.48;58.18;101787.34;5059013;28;46199;-70
2023/04/09 01:14:52;;;;;;;;;37.33;30.67;;;;;10.28;57.82;101748.13;5041245;28;45254;-72
2023/04/09 01:17:25;;;;;;;;;37.67;31.67;;;;;10.36;58.02;101759.03;5059181;28;45217;-70
2023/04/09 01:20:00;;;;;;;;;42.33;35.33;;;;;10.98;58.58;101865.84;5057556;28;45320;-73
2023/04/09 01:22:38;;;;;;;;;39.67;36.00;;;;;10.94;58.73;101858.25;5042294;28;45468;-71
2023/04/09 01:26:01;;;;;;;;;35.00;30.00;;;;;10.93;58.39;101852.06;5038837;28;45230;-71
2023/04/09 01:28:32;;;;;;;;;36.33;32.67;;;;;10.85;58.23;101864.28;4957617;28;45570;-70
2023/04/09 01:31:01;;;;;;;;;43.67;33.33;;;;;10.89;58.81;101871.91;4958250;28;45522;-71
2023/04/09 01:33:29;;;;;;;;;34.33;31.67;;;;;10.82;58.94;101864.53;5010635;28;46387;-71
2023/04/09 01:35:56;;;;;;;;;36.00;32.33;;;;;10.72;59.00;101850.22;5038617;28;45406;-72
2023/04/09 01:38:23;;;;;;;;;39.00;32.33;;;;;10.42;58.62;101795.78;5038504;28;45476;-71
2023/04/09 01:40:49;;;;;;;;;39.00;33.33;;;;;10.86;58.90;101865.97;5038603;28;45373;-72
2023/04/09 01:43:17;;;;;;;;;42.00;35.00;;;;;10.65;58.79;101841.88;5055246;28;46475;-70
2023/04/09 01:45:44;;;;;;;;;38.67;33.67;;;;;10.75;59.10;101856.16;5058396;28;45414;-71
2023/04/09 01:48:13;;;;;;;;;30.33;30.33;;;;;10.59;59.24;101832.53;5058687;28;45368;-71
2023/04/09 01:50:39;;;;;;;;;32.33;30.67;;;;;10.73;59.13;101857.25;5059040;28;45489;-71
2023/04/09 01:53:04;;;;;;;;;37.67;32.67;;;;;10.73;59.19;101862.56;5057994;28;45462;-71
2023/04/09 01:55:30;;;;;;;;;36.00;33.00;;;;;10.73;59.22;101855.44;5040545;28;45884;-71
2023/04/09 01:57:55;;;;;;;;;29.67;27.33;;;;;10.63;59.63;101841.16;5058742;28;45345;-73
2023/04/09 02:00:22;;;;;;;;;39.67;34.00;;;;;10.71;59.37;101852.03;5058750;28;45288;-70
2023/04/09 02:02:52;;;;;;;;;43.00;34.00;;;;;10.60;59.50;101839.56;5058392;28;45826;-73
2023/04/09 02:05:21;;;;;;;;;37.67;32.67;;;;;10.69;59.65;101847.81;5047239;28;45432;-72
2023/04/09 02:07:53;;;;;;;;;37.67;33.33;;;;;10.46;59.32;101807.03;5038168;28;45427;-72
2023/04/09 02:10:21;;;;;;;;;31.33;31.00;;;;;8.68;59.03;101510.69;5039091;28;45378;-71
2023/04/09 02:12:50;;;;;;;;;39.33;33.33;;;;;10.50;59.38;101819.97;5040131;28;45665;-73
2023/04/09 02:15:16;;;;;;;;;34.67;28.00;;;;;10.55;59.56;101827.59;5038379;28;45220;-71
2023/04/09 02:17:42;;;;;;;;;34.33;32.67;;;;;9.75;59.27;101692.75;5037104;28;45318;-72
2023/04/09 02:20:08;;;;;;;;;41.00;34.00;;;;;10.64;59.46;101832.22;5038326;28;45416;-71
2023/04/09 02:22:33;;;;;;;;;35.67;33.00;;;;;10.42;59.34;101809.09;5019362;28;47093;-72
2023/04/09 02:24:59;;;;;;;;;39.00;33.00;;;;;10.54;59.66;101813.44;5038018;28;45361;-71
2023/04/09 02:27:24;;;;;;;;;37.33;31.33;;;;;10.64;59.21;101841.03;5020124;28;45530;-71
2023/04/09 02:29:49;;;;;;;;;33.00;30.33;;;;;10.41;59.67;101786.13;5038177;28;45647;-71
2023/04/09 02:32:15;;;;;;;;;38.67;35.00;;;;;10.36;59.60;101788.25;5037466;28;47681;-71
2023/04/09 02:34:40;;;;;;;;;36.67;32.67;;;;;10.55;59.25;101803.66;5037262;28;45412;-70
2023/04/09 02:37:06;;;;;;;;;46.00;35.67;;;;;10.59;59.79;101815.75;5037780;28;45246;-72
2023/04/09 02:39:31;;;;;;;;;38.00;34.00;;;;;10.29;59.66;101776.41;5038061;28;45415;-71
2023/04/09 02:41:56;;;;;;;;;38.67;32.00;;;;;10.37;59.54;101797.94;5037505;28;45672;-71
2023/04/09 02:44:22;;;;;;;;;31.33;29.00;;;;;10.31;59.53;101772.66;5037307;28;45250;-70
2023/04/09 02:46:51;;;;;;;;;38.33;34.00;;;;;10.55;59.75;101815.13;5040556;28;45397;-70
2023/04/09 02:49:16;;;;;;;;;28.67;27.33;;;;;10.52;59.58;101815.38;5036288;28;45377;-70
2023/04/09 02:51:42;;;;;;;;;40.33;33.00;;;;;9.80;59.65;101705.69;5035807;28;48763;-72
2023/04/09 02:54:07;;;;;;;;;33.67;30.67;;;;;10.43;59.56;101800.13;5037183;28;49831;-71
2023/04/09 02:56:32;;;;;;;;;38.67;33.00;;;;;10.32;59.56;101779.69;5037451;28;45333;-72
2023/04/09 02:58:58;;;;;;;;;37.67;31.67;;;;;10.23;59.53;101755.63;5037616;28;45574;-72
2023/04/09 03:01:23;;;;;;;;;37.67;33.33;;;;;10.57;59.47;101817.66;5037204;28;46224;-71
2023/04/09 03:03:49;;;;;;;;;38.67;34.00;;;;;9.83;59.63;101688.69;5037373;28;45346;-71
2023/04/09 03:06:14;;;;;;;;;37.33;32.33;;;;;10.56;59.62;101810.66;5036992;28;45380;-71
2023/04/09 03:08:40;;;;;;;;;39.67;33.33;;;;;10.27;59.73;101770.38;5019626;28;45547;-72
2023/04/09 03:11:05;;;;;;;;;40.33;34.67;;;;;10.17;59.92;101745.41;5037077;28;45607;-73
2023/04/09 03:13:30;;;;;;;;;42.33;33.00;;;;;10.37;60.06;101779.31;5036877;28;48257;-71
2023/04/09 03:15:56;;;;;;;;;37.00;33.00;;;;;10.49;60.08;101794.34;5037444;28;45484;-71
2023/04/09 03:18:21;;;;;;;;;39.33;33.67;;;;;10.52;60.14;101804.75;5042313;28;45393;-70
2023/04/09 03:20:46;;;;;;;;;35.00;32.33;;;;;10.53;59.89;101795.78;5056976;28;52923;-71
2023/04/09 03:23:12;;;;;;;;;39.00;34.00;;;;;9.98;59.79;101700.78;5038797;28;45577;-71
2023/04/09 03:25:37;;;;;;;;;39.33;33.00;;;;;10.50;60.54;101801.34;5057146;28;45313;-72
2023/04/09 03:28:03;;;;;;;;;43.33;34.00;;;;;10.23;60.30;101763.59;5057584;28;45382;-70
2023/04/09 03:30:29;;;;;;;;;46.00;35.67;;;;;9.94;60.39;101713.47;5056961;28;46360;-72
2023/04/09 03:32:54;;;;;;;;;38.00;31.67;;;;;10.12;60.31;101750.25;5057065;28;45195;-70
2023/04/09 03:35:20;;;;;;;;;41.67;35.67;;;;;10.23;60.52;101761.78;5038860;28;45339;-71
2023/04/09 03:37:45;;;;;;;;;37.33;33.67;;;;;10.45;60.40;101802.69;5057177;28;45310;-72
2023/04/09 03:40:12;;;;;;;;;41.67;33.00;;;;;10.47;60.18;101796.28;5038720;28;47576;-72
2023/04/09 03:42:37;;;;;;;;;29.67;29.67;;;;;10.35;60.41;101778.59;5056901;28;45500;-72
2023/04/09 03:45:04;;;;;;;;;37.67;33.33;;;;;10.06;60.63;101736.47;5056815;28;45517;-71
2023/04/09 03:47:29;;;;;;;;;38.67;32.00;;;;;10.32;60.76;101778.84;5040476;28;45409;-70
2023/04/09 03:49:54;;;;;;;;;40.00;33.67;;;;;10.27;60.84;101781.00;5040127;28;45545;-72
2023/04/09 03:52:20;;;;;;;;;42.00;35.00;;;;;10.26;61.03;101776.66;5021885;28;45449;-71
2023/04/09 03:54:45;;;;;;;;;37.33;33.67;;;;;10.24;61.19;101773.25;5040463;28;45298;-72
2023/04/09 03:57:10;;;;;;;;;42.33;35.33;;;;;9.87;61.24;101722.88;5040647;28;45782;-72
2023/04/09 03:59:36;;;;;;;;;41.67;34.00;;;;;10.23;61.18;101785.72;5040096;28;46499;-72
2023/04/09 04:02:01;;;;;;;;;43.67;36.67;;;;;10.22;61.69;101799.13;5040850;28;45317;-70
2023/04/09 04:04:26;;;;;;;;;48.33;36.67;;;;;10.07;61.45;101758.56;5040403;28;45418;-71
2023/04/09 04:06:52;;;;;;;;;44.00;33.33;;;;;10.18;61.49;101785.16;5040126;28;45377;-72
2023/04/09 04:09:17;;;;;;;;;47.67;37.00;;;;;10.22;61.86;101784.00;5040272;28;46429;-70
2023/04/09 04:11:43;;;;;;;;;40.00;34.33;;;;;9.24;61.60;101625.84;5040116;28;45283;-72
2023/04/09 04:14:08;;;;;;;;;44.00;32.67;;;;;9.54;62.12;101693.53;5040118;28;45564;-70
2023/04/09 04:16:33;;;;;;;;;44.75;34.75;;;;;9.96;62.51;101767.31;5033259;28;45274;-70
2023/04/09 04:18:59;;;;;;;;;46.33;37.67;;;;;9.82;62.88;101782.63;5058441;28;46679;-70
2023/04/09 04:21:24;;;;;;;;;42.67;36.33;;;;;9.86;62.79;101784.94;5061082;28;45237;-72
2023/04/09 04:23:49;;;;;;;;;44.25;37.00;;;;;9.56;62.95;101724.31;5060130;28;45289;-72
2023/04/09 04:26:15;;;;;;;;;40.25;35.25;;;;;9.77;62.72;101764.34;5059826;28;47436;-72
2023/04/09 04:28:40;;;;;;;;;42.67;34.00;;;;;9.75;63.26;101751.19;5041466;28;47852;-71
2023/04/09 04:31:10;;;;;;;;;45.67;38.67;;;;;9.90;62.78;101765.13;5060007;28;45926;-71
2023/04/09 04:33:36;;;;;;;;;39.00;33.67;;;;;9.95;62.50;101783.38;5060202;28;45328;-71
2023/04/09 04:36:10;;;;;;;;;40.00;34.75;;;;;9.91;62.58;101760.66;5059749;28;45356;-71
2023/04/09 04:38:36;;;;;;;;;45.67;37.00;;;;;9.98;62.63;101776.03;5059682;28;46546;-71
2023/04/09 04:41:02;;;;;;;;;40.67;34.67;;;;;9.57;62.64;101709.22;5059570;28;45349;-71
2023/04/09 04:43:28;;;;;;;;;37.00;33.33;;;;;9.65;62.42;101723.63;5059676;28;45352;-72
2023/04/09 04:45:54;;;;;;;;;46.50;36.75;;;;;9.97;62.27;101777.00;5046228;28;45267;-72
2023/04/09 04:48:19;;;;;;;;;47.00;38.67;;;;;9.89;62.01;101757.28;5039339;28;46435;-72
2023/04/09 04:50:45;;;;;;;;;47.33;38.33;;;;;9.95;62.20;101778.91;5039165;28;45500;-72
2023/04/09 04:53:10;;;;;;;;;40.00;33.67;;;;;10.02;61.75;101790.78;5026591;28;45215;-71
2023/04/09 04:55:38;;;;;;;;;37.33;33.67;;;;;9.20;62.11;101648.25;5059589;28;45388;-71
2023/04/09 04:58:03;;;;;;;;;37.00;32.67;;;;;9.50;62.21;101706.19;5058708;28;45616;-72
2023/04/09 05:00:29;;;;;;;;;45.67;36.33;;;;;10.01;62.33;101793.53;5059311;28;45269;-71
2023/04/09 05:02:54;;;;;;;;;42.67;35.33;;;;;10.03;62.08;101787.19;5059535;28;45902;-71
2023/04/09 05:05:20;;;;;;;;;47.33;38.33;;;;;10.04;62.23;101798.66;5059256;28;45489;-72
2023/04/09 05:07:45;;;;;;;;;39.67;33.67;;;;;9.94;62.26;101776.38;5058154;28;46393;-72
2023/04/09 05:10:11;;;;;;;;;39.00;35.00;;;;;10.04;62.55;101791.53;5039952;28;45588;-71
2023/04/09 05:12:36;;;;;;;;;47.33;39.67;;;;;9.88;62.48;101772.38;5040920;28;45410;-73
2023/04/09 05:15:02;;;;;;;;;40.67;34.00;;;;;10.04;62.65;101810.13;5041191;28;45556;-70
2023/04/09 05:17:27;;;;;;;;;40.33;34.33;;;;;9.97;62.12;101792.94;5046470;28;45556;-72
2023/04/09 05:19:53;;;;;;;;;43.00;37.67;;;;;10.06;62.22;101797.56;5038930;28;45266;-72
2023/04/09 05:22:19;;;;;;;;;43.67;37.00;;;;;10.08;62.46;101800.13;5038706;28;45368;-71
2023/04/09 05:24:44;;;;;;;;;46.67;37.00;;;;;10.09;62.28;101807.13;5039044;28;45184;-73
2023/04/09 05:27:10;;;;;;;;;44.67;35.33;;;;;10.13;62.11;101799.75;5038597;28;46307;-71
2023/04/09 05:29:35;;;;;;;;;40.00;35.33;;;;;9.94;62.00;101766.59;5020559;28;46716;-71
2023/04/09 05:32:01;;;;;;;;;45.67;37.33;;;;;10.10;61.88;101787.56;5038787;28;45432;-72
2023/04/09 05:34:26;;;;;;;;;44.33;36.33;;;;;10.17;62.31;101806.53;5039035;28;45298;-72
2023/04/09 05:36:52;;;;;;;;;46.00;36.67;;;;;10.18;61.84;101806.41;5038364;28;46205;-72
2023/04/09 05:39:17;;;;;;;;;43.67;35.33;;;;;10.31;62.27;101822.31;5037315;28;45365;-71
2023/04/09 05:41:43;;;;;;;;;49.33;37.33;;;;;9.47;61.35;101665.75;5038604;28;45431;-70
2023/04/09 05:44:12;;;;;;;;;41.67;35.67;;;;;10.20;61.32;101788.53;5039613;28;45331;-72
2023/04/09 05:46:37;;;;;;;;;48.33;37.33;;;;;10.39;61.60;101813.75;5038389;28;45755;-72
2023/04/09 05:49:02;;;;;;;;;44.67;35.00;;;;;10.39;61.45;101819.91;5020474;28;45345;-72
2023/04/09 05:51:28;;;;;;;;;45.33;37.67;;;;;10.30;61.44;101815.31;5038192;28;45444;-72
2023/04/09 05:53:53;;;;;;;;;46.00;37.67;;;;;10.34;61.12;101795.50;5038545;28;45554;-71
2023/04/09 05:56:21;;;;;;;;;44.33;37.67;;;;;10.51;60.52;101819.00;5038191;28;45589;-72
2023/04/09 05:58:47;;;;;;;;;46.33;39.00;;;;;10.33;61.27;101765.41;5038457;28;45544;-72
2023/04/09 06:01:12;;;;;;;;;47.67;39.33;;;;;10.48;60.63;101797.13;5038258;28;45205;-72
2023/04/09 06:03:39;;;;;;;;;50.00;41.00;;;;;10.57;60.83;101815.84;5020757;28;45611;-72
2023/04/09 06:06:05;;;;;;;;;50.33;38.00;;;;;10.77;60.18;101816.13;5037917;28;46338;-72
2023/04/09 06:08:30;;;;;;;;;47.33;38.67;;;;;10.84;60.33;101836.84;5025645;28;46401;-71
2023/04/09 06:10:55;;;;;;;;;50.67;37.33;;;;;10.88;59.72;101824.16;5051975;28;45911;-71
2023/04/09 06:13:21;;;;;;;;;45.67;37.00;;;;;10.44;60.01;101738.03;5026407;28;45454;-72
2023/04/09 06:15:46;;;;;;;;;45.67;37.33;;;;;10.88;59.46;101798.38;5036508;28;45585;-71
2023/04/09 06:18:12;;;;;;;;;51.33;39.67;;;;;10.63;59.35;101754.25;5037469;28;45519;-72
2023/04/09 06:20:38;;;;;;;;;49.67;39.67;;;;;10.97;59.02;101792.31;5020373;28;45369;-71
2023/04/09 06:23:04;;;;;;;;;50.00;38.75;;;;;11.21;59.50;101829.47;5038280;28;45441;-73
2023/04/09 06:25:29;;;;;;;;;46.67;37.67;;;;;11.46;58.90;101819.53;5052454;28;45667;-71
2023/04/09 06:27:55;;;;;;;;;51.67;41.67;;;;;11.82;57.78;101823.72;5057316;28;45475;-72
2023/04/09 06:30:21;;;;;;;;;48.33;39.00;;;;;12.11;57.05;101831.97;5058122;28;45468;-71
2023/04/09 06:32:47;;;;;;;;;48.33;37.67;;;;;12.46;56.14;101823.69;5058375;28;45469;-71
2023/04/09 06:35:13;;;;;;;;;50.00;40.00;;;;;12.84;55.22;101828.44;5057287;28;45613;-71
2023/04/09 06:37:38;;;;;;;;;47.67;38.00;;;;;13.19;54.42;101827.19;5057478;28;45510;-75
2023/04/09 06:40:04;;;;;;;;;44.33;36.00;;;;;13.36;53.53;101829.22;5056992;28;45472;-70
2023/04/09 06:42:29;;;;;;;;;47.00;37.33;;;;;12.72;52.90;101672.88;5057197;28;45364;-71
2023/04/09 06:44:55;;;;;;;;;47.00;38.67;;;;;13.80;52.05;101816.38;5057922;28;45584;-71
2023/04/09 06:47:20;;;;;;;;;44.67;38.00;;;;;14.10;51.83;101818.13;5057814;28;45273;-72
2023/04/09 06:49:45;;;;;;;;;51.33;37.33;;;;;13.75;50.59;101693.03;5058425;28;45450;-73
2023/04/09 06:52:11;;;;;;;;;51.00;42.67;;;;;14.27;50.22;101692.53;5044792;28;45648;-71
2023/04/09 06:54:36;;;;;;;;;52.33;39.67;;;;;15.57;48.71;101831.81;5032752;28;47880;-71
2023/04/09 06:57:01;;;;;;;;;37.33;34.00;;;;;16.05;48.17;101821.66;5021509;28;46305;-71
2023/04/09 06:59:27;;;;;;;;;46.33;39.00;;;;;16.58;46.48;101818.03;5037519;28;45433;-72
2023/04/09 07:01:52;;;;;;;;;45.00;38.33;;;;;16.99;45.09;101826.38;5019740;28;45570;-71
2023/04/09 07:04:17;;;;;;;;;38.67;34.67;;;;;17.09;44.63;101759.94;5037205;28;45365;-71
2023/04/09 07:06:43;;;;;;;;;36.00;32.67;;;;;17.37;43.74;101748.94;5041558;28;45853;-73
2023/04/09 07:09:08;;;;;;;;;40.67;35.00;;;;;18.27;43.11;101836.91;5035961;28;45308;-73
2023/04/09 07:11:33;;;;;;;;;33.33;32.33;;;;;18.57;41.53;101812.97;5050870;28;45539;-73
2023/04/09 07:13:58;;;;;;;;;39.33;34.33;;;;;18.69;40.93;101792.81;5056920;28;54889;-74
2023/04/09 07:16:24;;;;;;;;;47.67;36.67;;;;;18.94;40.35;101778.25;5053066;28;45471;-74
2023/04/09 07:18:49;;;;;;;;;38.33;33.67;;;;;19.42;39.55;101789.81;5056786;28;45400;-73
2023/04/09 07:21:15;;;;;;;;;44.33;35.67;;;;;19.95;38.98;101815.19;5056905;28;45522;-73
2023/04/09 07:23:41;;;;;;;;;40.00;35.33;;;;;20.06;37.67;101741.88;5056579;28;46872;-75
2023/04/09 07:26:06;;;;;;;;;43.00;34.33;;;;;21.05;35.83;101818.25;5057016;28;45412;-74
2023/04/09 07:28:32;;;;;;;;;42.67;37.00;;;;;21.34;36.21;101812.00;5040210;28;45299;-75
2023/04/09 07:31:00;;;;;;;;;39.67;34.67;;;;;21.41;35.28;101748.81;5056398;28;45237;-71
2023/04/09 07:33:25;;;;;;;;;39.33;34.33;;;;;22.19;34.85;101812.13;5056754;28;46737;-73
2023/04/09 07:35:50;;;;;;;;;32.33;29.67;;;;;22.38;33.99;101797.09;5056897;28;45297;-75
2023/04/09 07:38:16;;;;;;;;;39.67;34.67;;;;;22.50;33.51;101765.72;5038723;28;45389;-77
2023/04/09 07:40:41;;;;;;;;;40.33;34.33;;;;;22.94;33.08;101784.38;5054166;28;45210;-76
2023/04/09 07:43:06;;;;;;;;;38.33;33.67;;;;;23.41;31.99;101812.56;5036679;28;45915;-77
2023/04/09 07:45:32;;;;;;;;;45.33;34.67;;;;;23.78;31.88;101805.81;5036973;28;45336;-74
2023/04/09 07:47:57;;;;;;;;;38.33;33.00;;;;;24.09;31.12;101816.13;5036799;28;45305;-77
2023/04/09 07:50:22;;;;;;;;;35.67;33.00;;;;;24.48;30.84;101817.22;5044642;28;45262;-76
2023/04/09 07:52:48;;;;;;;;;35.00;31.00;;;;;24.26;29.84;101735.03;5018530;28;48078;-76
2023/04/09 07:55:13;;;;;;;;;35.00;32.00;;;;;24.48;30.43;101712.03;5036745;28;45226;-76
2023/04/09 07:57:38;;;;;;;;;39.67;33.67;;;;;25.17;29.45;101808.53;5037163;28;45417;-78
2023/04/09 08:00:05;;;;;;;;;39.00;35.00;;;;;25.32;29.32;101819.16;5019999;28;45632;-77
2023/04/09 08:02:31;;;;;;;;;29.67;29.67;;;;;25.31;28.99;101815.59;5036167;28;45613;-76
2023/04/09 08:04:56;;;;;;;;;37.67;34.00;;;;;25.03;29.22;101769.66;5045940;28;45348;-77
2023/04/09 08:07:22;;;;;;;;;33.33;30.67;;;;;25.18;28.94;101813.75;5076196;28;45428;-75
2023/04/09 08:09:47;;;;;;;;;39.67;34.00;;;;;24.97;29.02;101769.63;5077130;28;45309;-75
2023/04/09 08:12:12;;;;;;;;;40.67;33.67;;;;;25.50;28.37;101813.84;5053192;28;46308;-76
2023/04/09 08:14:38;;;;;;;;;32.67;30.33;;;;;24.94;28.08;101700.16;5036523;28;45384;-80
2023/04/09 08:17:03;;;;;;;;;39.00;33.67;;;;;24.88;28.78;101691.00;5056747;28;45448;-75
2023/04/09 08:19:29;;;;;;;;;31.33;29.00;;;;;25.38;28.43;101755.69;5038661;28;45580;-76
2023/04/09 08:21:55;;;;;;;;;34.67;32.33;;;;;25.94;28.09;101812.16;5037971;28;47679;-77
2023/04/09 08:24:21;;;;;;;;;30.00;29.67;;;;;25.90;27.16;101808.22;5038097;28;45590;-77
2023/04/09 08:26:46;;;;;;;;;34.67;32.33;;;;;25.98;27.77;101819.66;5055851;28;45524;-78
2023/04/09 08:29:12;;;;;;;;;38.33;34.67;;;;;25.58;27.20;101750.94;5056616;28;45538;-75
2023/04/09 08:31:38;;;;;;;;;41.67;33.67;;;;;25.51;27.87;101792.91;5056539;28;46451;-76
2023/04/09 08:34:04;;;;;;;;;33.33;32.33;;;;;25.72;27.55;101806.22;5040316;28;45418;-74
2023/04/09 08:36:30;;;;;;;;;39.00;34.00;;;;;25.62;27.56;101786.75;5061813;28;45562;-76
2023/04/09 08:38:55;;;;;;;;;43.67;34.67;;;;;25.71;27.66;101771.88;5062720;28;45432;-76
2023/04/09 08:41:27;;;;;;;;;32.00;31.00;;;;;26.26;27.55;101810.25;5044226;28;46930;-77
2023/04/09 08:43:53;;;;;;;;;44.00;32.33;;;;;25.95;26.97;101702.13;5061286;28;45720;-75
2023/04/09 08:46:19;;;;;;;;;32.00;31.67;;;;;26.52;26.90;101738.31;5080297;28;45505;-78
2023/04/09 08:48:47;;;;;;;;;38.33;31.33;;;;;27.17;26.62;101779.59;5043103;28;45626;-79
2023/04/09 08:51:13;;;;;;;;;32.00;30.00;;;;;27.11;25.90;101713.09;5059534;28;46734;-80
2023/04/09 08:53:43;;;;;;;;;38.00;33.67;;;;;27.69;25.74;101796.38;5059875;28;45378;-78
2023/04/09 08:56:08;;;;;;;;;38.67;33.00;;;;;27.92;25.23;101795.63;5050609;28;45313;-79
2023/04/09 08:58:34;;;;;;;;;39.67;32.33;;;;;27.89;24.89;101791.44;5038883;28;45422;-78
2023/04/09 09:01:00;;;;;;;;;30.33;27.00;;;;;28.11;25.29;101789.84;5039687;28;45989;-77
2023/04/09 09:03:25;;;;;;;;;40.33;34.00;;;;;28.17;24.62;101777.13;5039543;28;45242;-79
2023/04/09 09:05:51;;;;;;;;;32.33;31.00;;;;;28.34;24.32;101780.03;5040961;28;45603;-77
2023/04/09 09:08:24;;;;;;;;;32.67;29.00;;;;;28.47;24.48;101779.78;5058816;28;45468;-79
2023/04/09 09:10:49;;;;;;;;;36.33;31.00;;;;;28.55;24.28;101778.59;5040605;28;47320;-75
2023/04/09 09:13:24;;;;;;;;;33.33;30.67;;;;;28.65;23.92;101757.78;5057989;28;45139;-76
2023/04/09 09:15:55;;;;;;;;;38.67;32.33;;;;;28.86;22.72;101737.19;5059571;28;45503;-77
2023/04/09 09:18:37;;;;;;;;;40.33;34.00;;;;;29.32;22.82;101757.28;5059576;28;45353;-75
2023/04/09 09:21:21;;;;;;;;;33.67;31.00;;;;;29.98;21.86;101770.31;5057476;28;45814;-79
2023/04/09 09:23:48;;;;;;;;;33.67;29.00;;;;;30.63;22.19;101779.06;5052210;28;45479;-76
2023/04/09 09:26:17;;;;;;;;;30.67;30.33;;;;;31.22;20.33;101765.56;5058181;28;45601;-80
2023/04/09 09:28:45;;;;;;;;;29.00;26.67;;;;;32.28;20.26;101777.69;5037154;28;45683;-75
2023/04/09 09:31:12;;;;;;;;;31.33;29.67;;;;;32.66;18.98;101727.00;5057902;28;45903;-77
2023/04/09 09:33:38;;;;;;;;;29.67;25.67;;;;;33.41;18.70;101781.84;5066183;28;45432;-80
2023/04/09 09:36:03;;;;;;;;;26.00;24.33;;;;;33.82;18.15;101738.63;5059200;28;45471;-77
2023/04/09 09:38:29;;;;;;;;;41.33;36.67;;;;;34.10;17.98;101668.28;5059109;28;45321;-78
2023/04/09 09:40:55;;;;;;;;;29.00;26.67;;;;;35.04;16.72;101769.69;5058731;28;46467;-74
2023/04/09 09:43:20;;;;;;;;;31.33;24.67;;;;;34.96;16.63;101758.38;5058829;28;45443;-77
2023/04/09 09:45:47;;;;;;;;;23.00;22.67;;;;;34.94;16.95;101757.81;5040991;28;45405;-75
2023/04/09 09:48:13;;;;;;;;;19.33;18.00;;;;;35.44;16.29;101733.78;5036396;28;45283;-76
2023/04/09 09:50:40;;;;;;;;;24.67;23.00;;;;;36.07;16.01;101739.41;5051783;28;45705;-75
2023/04/09 09:53:07;;;;;;;;;25.67;21.67;;;;;36.66;15.81;101752.13;5039769;28;45501;-75
2023/04/09 09:55:37;;;;;;;;;17.67;17.67;;;;;36.52;15.28;101713.22;5049943;28;45389;-75
2023/04/09 09:58:15;;;;;;;;;21.33;19.00;;;;;37.13;15.16;101754.84;5039492;28;45536;-76
2023/04/09 10:00:42;;;;;;;;;14.33;14.33;;;;;37.23;14.77;101694.81;5039900;28;48714;-77
2023/04/09 10:03:12;;;;;;;;;18.00;15.00;;;;;37.48;14.08;101713.88;5057200;28;45561;-81
2023/04/09 10:05:39;;;;;;;;;21.33;19.33;;;;;37.20;14.82;101718.44;5058603;28;45436;-76
2023/04/09 10:08:06;;;;;;;;;15.00;14.00;;;;;36.03;14.97;101655.28;5039864;28;45495;-76
2023/04/09 10:10:32;;;;;;;;;15.00;14.33;;;;;35.50;15.89;101707.78;5058204;28;45535;-75
2023/04/09 10:12:58;;;;;;;;;17.00;16.33;;;;;33.52;16.54;101569.31;5058338;28;45285;-77
2023/04/09 10:15:25;;;;;;;;;15.00;15.00;;;;;33.67;16.96;101738.63;5044609;28;45531;-76
2023/04/09 10:17:50;;;;;;;;;16.67;15.67;;;;;32.66;17.88;101704.13;5050589;28;45371;-76
2023/04/09 10:20:27;;;;;;;;;17.00;17.00;;;;;31.85;18.54;101720.09;5061834;28;46259;-77
2023/04/09 10:22:55;;;;;;;;;23.00;21.00;;;;;30.54;19.48;101702.63;5058638;28;45388;-76
2023/04/09 10:25:21;;;;;;;;;20.67;19.33;;;;;29.77;19.98;101726.34;5057671;28;45494;-76
2023/04/09 10:27:58;;;;;;;;;26.67;23.00;;;;;28.26;21.65;101665.53;5057700;28;45505;-77
2023/04/09 10:30:35;;;;;;;;;21.00;18.33;;;;;27.53;22.53;101716.69;5046319;28;47065;-76
2023/04/09 10:33:08;;;;;;;;;23.67;20.67;;;;;26.86;23.77;101740.47;5057591;28;45416;-76
2023/04/09 10:35:34;;;;;;;;;27.00;22.00;;;;;26.11;24.09;101720.63;5050713;28;45281;-77
2023/04/09 10:37:59;;;;;;;;;22.33;20.67;;;;;25.56;25.13;101734.00;5026218;28;45490;-76
2023/04/09 10:40:27;;;;;;;;;21.33;20.67;;;;;24.42;25.32;101636.75;5037412;28;55111;-77
2023/04/09 10:42:55;;;;;;;;;20.33;18.00;;;;;24.51;26.44;101744.22;5037674;28;45464;-76
2023/04/09 10:45:21;;;;;;;;;24.00;22.00;;;;;23.92;26.96;101722.50;5051603;28;45554;-77
2023/04/09 10:47:50;;;;;;;;;24.33;19.67;;;;;23.14;27.54;101648.00;5057024;28;45482;-75
2023/04/09 10:50:20;;;;;;;;;25.67;22.67;;;;;22.55;27.85;101594.38;5054351;28;45915;-77
2023/04/09 10:52:50;;;;;;;;;21.33;21.33;;;;;23.17;28.35;101724.38;5055309;28;45428;-78
2023/04/09 10:55:36;;;;;;;;;23.00;18.00;;;;;22.60;27.84;101682.16;5021483;28;45312;-77
2023/04/09 10:58:08;;;;;;;;;16.67;15.67;;;;;22.51;29.01;101720.47;5037407;28;45405;-76
2023/04/09 11:00:39;;;;;;;;;19.67;19.33;;;;;21.59;29.46;101617.69;5051415;28;46353;-72
2023/04/09 11:03:12;;;;;;;;;24.33;20.33;;;;;22.04;29.49;101728.28;5039245;28;45557;-75
2023/04/09 11:05:39;;;;;;;;;24.00;18.33;;;;;21.66;29.49;101708.75;5057275;28;45499;-75
2023/04/09 11:08:08;;;;;;;;;21.33;19.00;;;;;21.03;30.17;101653.53;5057245;28;45387;-75